sensor_id;sensor_type;location;lat;lon;timestamp;temperature;humidity
21787;DHT22;11055;50.870;4.316;2023-06-22T00:01:48;24.00;99.90
21787;DHT22;11055;50.870;4.316;2023-06-22T00:04:13;24.00;99.90
21787;DHT22;11055;50.870;4.316;2023-06-22T00:06:39;24.00;99.90
21787;DHT22;11055;50.870;4.316;2023-06-22T00:09:04;24.10;99.90
21787;DHT22;11055;50.870;4.316;2023-06-22T00:11:32;24.20;99.90
21787;DHT22;11055;50.870;4.316;2023-06-22T00:13:58;24.30;99.90
21787;DHT22;11055;50.870;4.316;2023-06-22T00:16:24;24.30;99.90
21787;DHT22;11055;50.870;4.316;2023-06-22T00:18:50;24.00;99.90
21787;DHT22;11055;50.870;4.316;2023-06-22T00:21:15;24.00;99.90
21787;DHT22;11055;50.870;4.316;2023-06-22T00:23:41;24.10;99.90
21787;DHT22;11055;50.870;4.316;2023-06-22T00:26:06;24.20;99.90
21787;DHT22;11055;50.870;4.316;2023-06-22T00:28:32;24.30;99.90
21787;DHT22;11055;50.870;4.316;2023-06-22T00:30:57;24.20;99.90
21787;DHT22;11055;50.870;4.316;2023-06-22T00:33:23;24.20;99.90
21787;DHT22;11055;50.870;4.316;2023-06-22T00:35:48;24.20;99.90
21787;DHT22;11055;50.870;4.316;2023-06-22T00:38:18;24.20;99.90
21787;DHT22;11055;50.870;4.316;2023-06-22T00:40:43;24.20;99.90
21787;DHT22;11055;50.870;4.316;2023-06-22T00:43:09;24.30;99.90
21787;DHT22;11055;50.870;4.316;2023-06-22T00:45:34;24.30;99.90
21787;DHT22;11055;50.870;4.316;2023-06-22T00:48:00;24.40;99.90
21787;DHT22;11055;50.870;4.316;2023-06-22T00:50:27;24.30;99.90
21787;DHT22;11055;50.870;4.316;2023-06-22T00:52:54;24.20;99.90
21787;DHT22;11055;50.870;4.316;2023-06-22T00:55:22;24.30;99.90
21787;DHT22;11055;50.870;4.316;2023-06-22T00:57:47;24.20;99.90
21787;DHT22;11055;50.870;4.316;2023-06-22T01:00:14;24.10;99.90
21787;DHT22;11055;50.870;4.316;2023-06-22T01:02:42;24.10;99.90
21787;DHT22;11055;50.870;4.316;2023-06-22T01:05:14;24.10;99.90
21787;DHT22;11055;50.870;4.316;2023-06-22T01:07:42;24.20;99.90
21787;DHT22;11055;50.870;4.316;2023-06-22T01:12:59;24.20;99.90
21787;DHT22;11055;50.870;4.316;2023-06-22T01:15:34;24.30;99.90
21787;DHT22;11055;50.870;4.316;2023-06-22T01:18:03;24.20;99.90
21787;DHT22;11055;50.870;4.316;2023-06-22T01:20:29;24.10;99.90
21787;DHT22;11055;50.870;4.316;2023-06-22T01:22:59;23.90;99.90
21787;DHT22;11055;50.870;4.316;2023-06-22T01:25:36;23.70;99.90
21787;DHT22;11055;50.870;4.316;2023-06-22T01:30:29;23.80;99.90
21787;DHT22;11055;50.870;4.316;2023-06-22T01:32:56;23.80;99.90
21787;DHT22;11055;50.870;4.316;2023-06-22T01:35:22;23.80;99.90
21787;DHT22;11055;50.870;4.316;2023-06-22T01:37:48;23.90;99.90
21787;DHT22;11055;50.870;4.316;2023-06-22T01:40:14;23.90;99.90
21787;DHT22;11055;50.870;4.316;2023-06-22T01:42:40;23.80;99.90
21787;DHT22;11055;50.870;4.316;2023-06-22T01:45:07;23.80;99.90
21787;DHT22;11055;50.870;4.316;2023-06-22T01:47:32;23.90;99.90
21787;DHT22;11055;50.870;4.316;2023-06-22T01:49:59;23.90;99.90
21787;DHT22;11055;50.870;4.316;2023-06-22T01:52:24;23.80;99.90
21787;DHT22;11055;50.870;4.316;2023-06-22T01:54:50;23.90;99.90
21787;DHT22;11055;50.870;4.316;2023-06-22T01:57:15;24.00;99.90
21787;DHT22;11055;50.870;4.316;2023-06-22T01:59:47;24.00;99.90
21787;DHT22;11055;50.870;4.316;2023-06-22T02:02:14;23.70;99.90
21787;DHT22;11055;50.870;4.316;2023-06-22T02:07:08;23.30;99.90
21787;DHT22;11055;50.870;4.316;2023-06-22T02:09:35;23.30;99.90
21787;DHT22;11055;50.870;4.316;2023-06-22T02:12:02;23.50;99.90
21787;DHT22;11055;50.870;4.316;2023-06-22T02:14:28;23.60;99.90
21787;DHT22;11055;50.870;4.316;2023-06-22T02:16:54;23.70;99.90
21787;DHT22;11055;50.870;4.316;2023-06-22T02:19:23;23.60;99.90
21787;DHT22;11055;50.870;4.316;2023-06-22T02:21:50;23.60;99.90
21787;DHT22;11055;50.870;4.316;2023-06-22T02:24:15;23.60;99.90
21787;DHT22;11055;50.870;4.316;2023-06-22T02:26:41;23.70;99.90
21787;DHT22;11055;50.870;4.316;2023-06-22T02:29:07;23.70;99.90
21787;DHT22;11055;50.870;4.316;2023-06-22T02:31:33;23.70;99.90
21787;DHT22;11055;50.870;4.316;2023-06-22T02:33:59;23.70;99.90
21787;DHT22;11055;50.870;4.316;2023-06-22T02:36:25;23.70;99.90
21787;DHT22;11055;50.870;4.316;2023-06-22T02:38:52;23.60;99.90
21787;DHT22;11055;50.870;4.316;2023-06-22T02:41:17;23.40;99.90
21787;DHT22;11055;50.870;4.316;2023-06-22T02:43:46;23.20;99.90
21787;DHT22;11055;50.870;4.316;2023-06-22T02:46:12;23.10;99.90
21787;DHT22;11055;50.870;4.316;2023-06-22T02:48:41;22.90;99.90
21787;DHT22;11055;50.870;4.316;2023-06-22T02:51:07;22.90;99.90
21787;DHT22;11055;50.870;4.316;2023-06-22T02:53:33;22.90;99.90
21787;DHT22;11055;50.870;4.316;2023-06-22T02:55:58;23.10;99.90
21787;DHT22;11055;50.870;4.316;2023-06-22T02:58:24;23.00;99.90
21787;DHT22;11055;50.870;4.316;2023-06-22T03:00:50;23.10;99.90
21787;DHT22;11055;50.870;4.316;2023-06-22T03:03:19;23.20;99.90
21787;DHT22;11055;50.870;4.316;2023-06-22T03:05:44;23.20;99.90
21787;DHT22;11055;50.870;4.316;2023-06-22T03:08:10;23.20;99.90
21787;DHT22;11055;50.870;4.316;2023-06-22T03:10:35;23.30;99.90
21787;DHT22;11055;50.870;4.316;2023-06-22T03:13:01;23.40;99.90
21787;DHT22;11055;50.870;4.316;2023-06-22T03:15:28;23.30;99.90
21787;DHT22;11055;50.870;4.316;2023-06-22T03:17:57;23.40;99.90
21787;DHT22;11055;50.870;4.316;2023-06-22T03:20:23;23.40;99.90
21787;DHT22;11055;50.870;4.316;2023-06-22T03:22:50;23.40;99.90
21787;DHT22;11055;50.870;4.316;2023-06-22T03:25:15;23.40;99.90
21787;DHT22;11055;50.870;4.316;2023-06-22T03:27:41;23.40;99.90
21787;DHT22;11055;50.870;4.316;2023-06-22T03:30:14;23.40;99.90
21787;DHT22;11055;50.870;4.316;2023-06-22T03:32:40;23.40;99.90
21787;DHT22;11055;50.870;4.316;2023-06-22T03:35:08;23.40;99.90
21787;DHT22;11055;50.870;4.316;2023-06-22T03:37:33;23.40;99.90
21787;DHT22;11055;50.870;4.316;2023-06-22T03:39:59;23.30;99.90
21787;DHT22;11055;50.870;4.316;2023-06-22T03:42:25;23.30;99.90
21787;DHT22;11055;50.870;4.316;2023-06-22T03:44:51;23.40;99.90
21787;DHT22;11055;50.870;4.316;2023-06-22T03:47:17;23.30;99.90
21787;DHT22;11055;50.870;4.316;2023-06-22T03:49:42;23.40;99.90
21787;DHT22;11055;50.870;4.316;2023-06-22T03:52:08;23.20;99.90
21787;DHT22;11055;50.870;4.316;2023-06-22T03:54:33;23.00;99.90
21787;DHT22;11055;50.870;4.316;2023-06-22T03:56:59;22.90;99.90
21787;DHT22;11055;50.870;4.316;2023-06-22T03:59:25;22.80;99.90
21787;DHT22;11055;50.870;4.316;2023-06-22T04:01:50;22.70;99.90
21787;DHT22;11055;50.870;4.316;2023-06-22T04:04:19;22.50;99.90
21787;DHT22;11055;50.870;4.316;2023-06-22T04:06:45;22.40;99.90
21787;DHT22;11055;50.870;4.316;2023-06-22T04:09:10;22.30;99.90
21787;DHT22;11055;50.870;4.316;2023-06-22T04:11:36;22.40;99.90
21787;DHT22;11055;50.870;4.316;2023-06-22T04:14:01;22.60;99.90
21787;DHT22;11055;50.870;4.316;2023-06-22T04:16:27;22.60;99.90
21787;DHT22;11055;50.870;4.316;2023-06-22T04:18:53;22.70;99.90
21787;DHT22;11055;50.870;4.316;2023-06-22T04:21:18;22.60;99.90
21787;DHT22;11055;50.870;4.316;2023-06-22T04:23:45;22.70;99.90
21787;DHT22;11055;50.870;4.316;2023-06-22T04:26:11;22.90;99.90
21787;DHT22;11055;50.870;4.316;2023-06-22T04:28:37;23.00;99.90
21787;DHT22;11055;50.870;4.316;2023-06-22T04:31:03;23.10;99.90
21787;DHT22;11055;50.870;4.316;2023-06-22T04:33:28;23.10;99.90
21787;DHT22;11055;50.870;4.316;2023-06-22T04:35:54;23.10;99.90
21787;DHT22;11055;50.870;4.316;2023-06-22T04:38:22;23.10;99.90
21787;DHT22;11055;50.870;4.316;2023-06-22T04:40:48;22.90;99.90
21787;DHT22;11055;50.870;4.316;2023-06-22T04:43:13;22.80;99.90
21787;DHT22;11055;50.870;4.316;2023-06-22T04:45:39;22.80;99.90
21787;DHT22;11055;50.870;4.316;2023-06-22T04:48:05;22.90;99.90
21787;DHT22;11055;50.870;4.316;2023-06-22T04:50:30;23.00;99.90
21787;DHT22;11055;50.870;4.316;2023-06-22T04:52:56;23.10;99.90
21787;DHT22;11055;50.870;4.316;2023-06-22T04:55:21;23.10;99.90
21787;DHT22;11055;50.870;4.316;2023-06-22T04:57:48;23.20;99.90
21787;DHT22;11055;50.870;4.316;2023-06-22T05:00:20;23.20;99.90
21787;DHT22;11055;50.870;4.316;2023-06-22T05:02:48;23.10;99.90
21787;DHT22;11055;50.870;4.316;2023-06-22T05:05:14;23.10;99.90
21787;DHT22;11055;50.870;4.316;2023-06-22T05:07:43;23.10;99.90
21787;DHT22;11055;50.870;4.316;2023-06-22T05:10:10;23.10;99.90
21787;DHT22;11055;50.870;4.316;2023-06-22T05:12:37;23.20;99.90
21787;DHT22;11055;50.870;4.316;2023-06-22T05:15:03;23.30;99.90
21787;DHT22;11055;50.870;4.316;2023-06-22T05:17:29;23.40;99.90
21787;DHT22;11055;50.870;4.316;2023-06-22T05:19:54;23.30;99.90
21787;DHT22;11055;50.870;4.316;2023-06-22T05:22:21;23.50;99.90
21787;DHT22;11055;50.870;4.316;2023-06-22T05:24:46;23.50;99.90
21787;DHT22;11055;50.870;4.316;2023-06-22T05:27:12;23.40;99.90
21787;DHT22;11055;50.870;4.316;2023-06-22T05:29:37;23.50;99.90
21787;DHT22;11055;50.870;4.316;2023-06-22T05:32:03;23.50;99.90
21787;DHT22;11055;50.870;4.316;2023-06-22T05:34:29;23.50;99.90
21787;DHT22;11055;50.870;4.316;2023-06-22T05:36:54;23.50;99.90
21787;DHT22;11055;50.870;4.316;2023-06-22T05:39:20;23.50;99.90
21787;DHT22;11055;50.870;4.316;2023-06-22T05:41:45;23.40;99.90
21787;DHT22;11055;50.870;4.316;2023-06-22T05:44:11;23.30;99.90
21787;DHT22;11055;50.870;4.316;2023-06-22T05:46:37;23.30;99.90
21787;DHT22;11055;50.870;4.316;2023-06-22T05:49:02;23.20;99.90
21787;DHT22;11055;50.870;4.316;2023-06-22T05:51:28;23.20;99.90
21787;DHT22;11055;50.870;4.316;2023-06-22T05:53:53;23.30;99.90
21787;DHT22;11055;50.870;4.316;2023-06-22T05:56:19;23.30;99.90
21787;DHT22;11055;50.870;4.316;2023-06-22T05:58:45;23.40;99.90
21787;DHT22;11055;50.870;4.316;2023-06-22T06:01:11;23.50;99.90
21787;DHT22;11055;50.870;4.316;2023-06-22T06:03:36;23.40;99.90
21787;DHT22;11055;50.870;4.316;2023-06-22T06:06:06;23.50;99.90
21787;DHT22;11055;50.870;4.316;2023-06-22T06:08:32;23.50;99.90
21787;DHT22;11055;50.870;4.316;2023-06-22T06:10:57;23.40;99.90
21787;DHT22;11055;50.870;4.316;2023-06-22T06:13:23;23.30;99.90
21787;DHT22;11055;50.870;4.316;2023-06-22T06:15:49;23.20;99.90
21787;DHT22;11055;50.870;4.316;2023-06-22T06:18:16;23.00;99.90
21787;DHT22;11055;50.870;4.316;2023-06-22T06:20:42;22.90;99.90
21787;DHT22;11055;50.870;4.316;2023-06-22T06:23:08;22.90;99.90
21787;DHT22;11055;50.870;4.316;2023-06-22T06:25:33;22.80;99.90
21787;DHT22;11055;50.870;4.316;2023-06-22T06:27:59;22.90;99.90
21787;DHT22;11055;50.870;4.316;2023-06-22T06:30:25;23.00;99.90
21787;DHT22;11055;50.870;4.316;2023-06-22T06:32:50;23.10;99.90
21787;DHT22;11055;50.870;4.316;2023-06-22T06:35:16;23.20;99.90
21787;DHT22;11055;50.870;4.316;2023-06-22T06:37:43;23.30;99.90
21787;DHT22;11055;50.870;4.316;2023-06-22T06:40:09;23.30;99.90
21787;DHT22;11055;50.870;4.316;2023-06-22T06:42:38;23.30;99.90
21787;DHT22;11055;50.870;4.316;2023-06-22T06:45:06;23.30;99.90
21787;DHT22;11055;50.870;4.316;2023-06-22T06:47:31;23.30;99.90
21787;DHT22;11055;50.870;4.316;2023-06-22T06:49:57;23.30;99.90
21787;DHT22;11055;50.870;4.316;2023-06-22T06:52:23;23.30;99.90
21787;DHT22;11055;50.870;4.316;2023-06-22T06:54:48;23.30;99.90
21787;DHT22;11055;50.870;4.316;2023-06-22T06:57:14;23.30;99.90
21787;DHT22;11055;50.870;4.316;2023-06-22T06:59:40;23.40;99.90
21787;DHT22;11055;50.870;4.316;2023-06-22T07:02:06;23.40;99.90
21787;DHT22;11055;50.870;4.316;2023-06-22T07:04:32;23.40;99.90
21787;DHT22;11055;50.870;4.316;2023-06-22T07:06:58;23.40;99.90
21787;DHT22;11055;50.870;4.316;2023-06-22T07:09:24;23.30;99.90
21787;DHT22;11055;50.870;4.316;2023-06-22T07:11:49;23.40;99.90
21787;DHT22;11055;50.870;4.316;2023-06-22T07:14:15;23.30;99.90
21787;DHT22;11055;50.870;4.316;2023-06-22T07:16:40;23.30;99.90
21787;DHT22;11055;50.870;4.316;2023-06-22T07:19:07;23.20;99.90
21787;DHT22;11055;50.870;4.316;2023-06-22T07:21:32;23.20;99.90
21787;DHT22;11055;50.870;4.316;2023-06-22T07:23:58;23.10;99.90
21787;DHT22;11055;50.870;4.316;2023-06-22T07:26:23;23.10;99.90
21787;DHT22;11055;50.870;4.316;2023-06-22T07:28:49;23.20;99.90
21787;DHT22;11055;50.870;4.316;2023-06-22T07:31:16;23.10;99.90
21787;DHT22;11055;50.870;4.316;2023-06-22T07:33:41;23.10;99.90
21787;DHT22;11055;50.870;4.316;2023-06-22T07:36:07;23.10;99.90
21787;DHT22;11055;50.870;4.316;2023-06-22T07:38:33;23.20;99.90
21787;DHT22;11055;50.870;4.316;2023-06-22T07:41:00;23.20;99.90
21787;DHT22;11055;50.870;4.316;2023-06-22T07:43:26;23.20;99.90
21787;DHT22;11055;50.870;4.316;2023-06-22T07:45:51;23.30;99.90
21787;DHT22;11055;50.870;4.316;2023-06-22T07:48:20;23.30;99.90
21787;DHT22;11055;50.870;4.316;2023-06-22T07:50:46;23.20;99.90
21787;DHT22;11055;50.870;4.316;2023-06-22T07:53:12;23.10;99.90
21787;DHT22;11055;50.870;4.316;2023-06-22T07:55:37;23.10;99.90
21787;DHT22;11055;50.870;4.316;2023-06-22T07:58:03;22.90;99.90
21787;DHT22;11055;50.870;4.316;2023-06-22T08:00:28;23.00;99.90
21787;DHT22;11055;50.870;4.316;2023-06-22T08:02:54;23.10;99.90
21787;DHT22;11055;50.870;4.316;2023-06-22T08:05:19;23.00;99.90
21787;DHT22;11055;50.870;4.316;2023-06-22T08:07:45;23.30;99.90
21787;DHT22;11055;50.870;4.316;2023-06-22T08:10:11;23.10;99.90
21787;DHT22;11055;50.870;4.316;2023-06-22T08:12:37;23.00;99.90
21787;DHT22;11055;50.870;4.316;2023-06-22T08:15:02;23.10;99.90
21787;DHT22;11055;50.870;4.316;2023-06-22T08:17:28;23.10;99.90
21787;DHT22;11055;50.870;4.316;2023-06-22T08:19:54;23.10;99.90
21787;DHT22;11055;50.870;4.316;2023-06-22T08:22:19;23.10;99.90
21787;DHT22;11055;50.870;4.316;2023-06-22T08:24:45;23.20;99.90
21787;DHT22;11055;50.870;4.316;2023-06-22T08:27:10;23.30;99.90
21787;DHT22;11055;50.870;4.316;2023-06-22T08:29:41;23.20;99.90
21787;DHT22;11055;50.870;4.316;2023-06-22T08:32:08;23.10;99.90
21787;DHT22;11055;50.870;4.316;2023-06-22T08:34:34;23.10;99.90
21787;DHT22;11055;50.870;4.316;2023-06-22T08:36:59;23.20;99.90
21787;DHT22;11055;50.870;4.316;2023-06-22T08:39:25;23.10;99.90
21787;DHT22;11055;50.870;4.316;2023-06-22T08:41:51;23.00;99.90
21787;DHT22;11055;50.870;4.316;2023-06-22T08:44:18;22.90;99.90
21787;DHT22;11055;50.870;4.316;2023-06-22T08:46:43;22.80;99.90
21787;DHT22;11055;50.870;4.316;2023-06-22T08:49:09;22.80;99.90
21787;DHT22;11055;50.870;4.316;2023-06-22T08:51:35;22.70;99.90
21787;DHT22;11055;50.870;4.316;2023-06-22T08:54:01;22.70;99.90
21787;DHT22;11055;50.870;4.316;2023-06-22T08:56:26;22.70;99.90
21787;DHT22;11055;50.870;4.316;2023-06-22T08:58:52;22.80;99.90
21787;DHT22;11055;50.870;4.316;2023-06-22T09:01:17;22.90;99.90
21787;DHT22;11055;50.870;4.316;2023-06-22T09:03:43;22.90;99.90
21787;DHT22;11055;50.870;4.316;2023-06-22T09:06:08;22.90;99.90
21787;DHT22;11055;50.870;4.316;2023-06-22T09:08:39;22.90;99.90
21787;DHT22;11055;50.870;4.316;2023-06-22T09:11:04;22.80;99.90
21787;DHT22;11055;50.870;4.316;2023-06-22T09:13:30;22.70;99.90
21787;DHT22;11055;50.870;4.316;2023-06-22T09:15:56;22.60;99.90
21787;DHT22;11055;50.870;4.316;2023-06-22T09:18:21;22.60;99.90
21787;DHT22;11055;50.870;4.316;2023-06-22T09:20:47;22.60;99.90
21787;DHT22;11055;50.870;4.316;2023-06-22T09:23:12;22.70;99.90
21787;DHT22;11055;50.870;4.316;2023-06-22T09:25:38;22.70;99.90
21787;DHT22;11055;50.870;4.316;2023-06-22T09:28:05;22.80;99.90
21787;DHT22;11055;50.870;4.316;2023-06-22T09:30:30;22.70;99.90
21787;DHT22;11055;50.870;4.316;2023-06-22T09:32:56;22.80;99.90
21787;DHT22;11055;50.870;4.316;2023-06-22T09:35:22;22.80;99.90
21787;DHT22;11055;50.870;4.316;2023-06-22T09:37:47;22.90;99.90
21787;DHT22;11055;50.870;4.316;2023-06-22T09:40:13;22.80;99.90
21787;DHT22;11055;50.870;4.316;2023-06-22T09:42:41;22.80;99.90
21787;DHT22;11055;50.870;4.316;2023-06-22T09:45:06;22.90;99.90
21787;DHT22;11055;50.870;4.316;2023-06-22T09:47:32;23.00;99.90
21787;DHT22;11055;50.870;4.316;2023-06-22T09:49:57;23.10;99.90
21787;DHT22;11055;50.870;4.316;2023-06-22T09:52:25;23.10;99.90
21787;DHT22;11055;50.870;4.316;2023-06-22T09:54:50;23.10;99.90
21787;DHT22;11055;50.870;4.316;2023-06-22T09:57:16;23.20;99.90
21787;DHT22;11055;50.870;4.316;2023-06-22T09:59:41;23.30;99.90
21787;DHT22;11055;50.870;4.316;2023-06-22T10:02:07;23.30;99.90
21787;DHT22;11055;50.870;4.316;2023-06-22T10:04:33;23.30;99.90
21787;DHT22;11055;50.870;4.316;2023-06-22T10:06:59;23.30;99.90
21787;DHT22;11055;50.870;4.316;2023-06-22T10:09:24;23.10;99.90
21787;DHT22;11055;50.870;4.316;2023-06-22T10:11:50;23.00;99.90
21787;DHT22;11055;50.870;4.316;2023-06-22T10:14:15;23.00;99.90
21787;DHT22;11055;50.870;4.316;2023-06-22T10:16:41;23.00;99.90
21787;DHT22;11055;50.870;4.316;2023-06-22T10:19:07;23.00;99.90
21787;DHT22;11055;50.870;4.316;2023-06-22T10:21:33;22.90;99.90
21787;DHT22;11055;50.870;4.316;2023-06-22T10:23:59;22.80;99.90
21787;DHT22;11055;50.870;4.316;2023-06-22T10:26:34;22.60;99.90
21787;DHT22;11055;50.870;4.316;2023-06-22T10:28:59;22.40;99.90
21787;DHT22;11055;50.870;4.316;2023-06-22T10:31:25;22.10;99.90
21787;DHT22;11055;50.870;4.316;2023-06-22T10:33:51;21.80;99.90
21787;DHT22;11055;50.870;4.316;2023-06-22T10:36:16;21.50;99.90
21787;DHT22;11055;50.870;4.316;2023-06-22T10:38:42;21.40;99.90
21787;DHT22;11055;50.870;4.316;2023-06-22T10:41:07;21.00;99.90
21787;DHT22;11055;50.870;4.316;2023-06-22T10:43:33;20.90;99.90
21787;DHT22;11055;50.870;4.316;2023-06-22T10:45:58;20.80;99.90
21787;DHT22;11055;50.870;4.316;2023-06-22T10:48:24;20.60;99.90
21787;DHT22;11055;50.870;4.316;2023-06-22T10:50:49;20.60;99.90
21787;DHT22;11055;50.870;4.316;2023-06-22T10:53:15;20.50;99.90
21787;DHT22;11055;50.870;4.316;2023-06-22T10:55:40;20.50;99.90
21787;DHT22;11055;50.870;4.316;2023-06-22T10:58:06;20.40;99.90
21787;DHT22;11055;50.870;4.316;2023-06-22T11:00:32;20.40;99.90
21787;DHT22;11055;50.870;4.316;2023-06-22T11:02:57;20.30;99.90
21787;DHT22;11055;50.870;4.316;2023-06-22T11:05:23;20.30;99.90
21787;DHT22;11055;50.870;4.316;2023-06-22T11:07:49;20.30;99.90
21787;DHT22;11055;50.870;4.316;2023-06-22T11:10:15;20.20;99.90
21787;DHT22;11055;50.870;4.316;2023-06-22T11:12:40;20.20;99.90
21787;DHT22;11055;50.870;4.316;2023-06-22T11:15:08;20.20;99.90
21787;DHT22;11055;50.870;4.316;2023-06-22T11:17:34;20.30;99.90
21787;DHT22;11055;50.870;4.316;2023-06-22T11:19:59;20.30;99.90
21787;DHT22;11055;50.870;4.316;2023-06-22T11:22:25;20.40;99.90
21787;DHT22;11055;50.870;4.316;2023-06-22T11:24:51;20.50;99.90
21787;DHT22;11055;50.870;4.316;2023-06-22T11:27:16;20.60;99.90
21787;DHT22;11055;50.870;4.316;2023-06-22T11:29:43;20.60;99.90
21787;DHT22;11055;50.870;4.316;2023-06-22T11:32:08;20.50;99.90
21787;DHT22;11055;50.870;4.316;2023-06-22T11:34:34;20.20;99.90
21787;DHT22;11055;50.870;4.316;2023-06-22T11:37:00;20.00;99.90
21787;DHT22;11055;50.870;4.316;2023-06-22T11:39:25;20.00;99.90
21787;DHT22;11055;50.870;4.316;2023-06-22T11:41:51;20.00;99.90
21787;DHT22;11055;50.870;4.316;2023-06-22T11:44:17;20.10;99.90
21787;DHT22;11055;50.870;4.316;2023-06-22T11:46:42;20.00;99.90
21787;DHT22;11055;50.870;4.316;2023-06-22T11:49:08;19.80;99.90
21787;DHT22;11055;50.870;4.316;2023-06-22T11:51:33;19.80;99.90
21787;DHT22;11055;50.870;4.316;2023-06-22T11:53:59;19.80;99.90
21787;DHT22;11055;50.870;4.316;2023-06-22T11:56:24;20.00;99.90
21787;DHT22;11055;50.870;4.316;2023-06-22T11:58:50;20.10;99.90
21787;DHT22;11055;50.870;4.316;2023-06-22T12:01:16;20.30;99.90
21787;DHT22;11055;50.870;4.316;2023-06-22T12:03:41;20.40;99.90
21787;DHT22;11055;50.870;4.316;2023-06-22T12:06:08;20.30;99.90
21787;DHT22;11055;50.870;4.316;2023-06-22T12:08:34;20.40;99.90
21787;DHT22;11055;50.870;4.316;2023-06-22T12:10:59;20.50;99.90
21787;DHT22;11055;50.870;4.316;2023-06-22T12:13:25;20.60;99.90
21787;DHT22;11055;50.870;4.316;2023-06-22T12:15:50;20.60;99.90
21787;DHT22;11055;50.870;4.316;2023-06-22T12:18:18;20.40;99.90
21787;DHT22;11055;50.870;4.316;2023-06-22T12:20:45;20.30;99.90
21787;DHT22;11055;50.870;4.316;2023-06-22T12:23:11;20.20;99.90
21787;DHT22;11055;50.870;4.316;2023-06-22T12:25:37;20.20;99.90
21787;DHT22;11055;50.870;4.316;2023-06-22T12:28:02;20.20;99.90
21787;DHT22;11055;50.870;4.316;2023-06-22T12:30:30;20.20;99.90
21787;DHT22;11055;50.870;4.316;2023-06-22T12:32:55;20.20;99.90
21787;DHT22;11055;50.870;4.316;2023-06-22T12:35:21;20.30;99.90
21787;DHT22;11055;50.870;4.316;2023-06-22T12:37:46;20.30;99.90
21787;DHT22;11055;50.870;4.316;2023-06-22T12:40:12;20.50;99.90
21787;DHT22;11055;50.870;4.316;2023-06-22T12:42:37;20.50;99.90
21787;DHT22;11055;50.870;4.316;2023-06-22T12:45:03;20.50;99.90
21787;DHT22;11055;50.870;4.316;2023-06-22T12:47:29;20.60;99.90
21787;DHT22;11055;50.870;4.316;2023-06-22T12:49:54;20.60;99.90
21787;DHT22;11055;50.870;4.316;2023-06-22T12:52:20;20.50;99.90
21787;DHT22;11055;50.870;4.316;2023-06-22T12:54:45;20.40;99.90
21787;DHT22;11055;50.870;4.316;2023-06-22T12:57:11;20.40;99.90
21787;DHT22;11055;50.870;4.316;2023-06-22T12:59:36;20.20;99.90
21787;DHT22;11055;50.870;4.316;2023-06-22T13:02:02;20.20;99.90
21787;DHT22;11055;50.870;4.316;2023-06-22T13:04:28;20.00;99.90
21787;DHT22;11055;50.870;4.316;2023-06-22T13:06:53;19.90;99.90
21787;DHT22;11055;50.870;4.316;2023-06-22T13:09:19;19.80;99.90
21787;DHT22;11055;50.870;4.316;2023-06-22T13:11:44;19.70;99.90
21787;DHT22;11055;50.870;4.316;2023-06-22T13:14:10;19.80;99.90
21787;DHT22;11055;50.870;4.316;2023-06-22T13:16:35;19.70;99.90
21787;DHT22;11055;50.870;4.316;2023-06-22T13:19:01;19.70;99.90
21787;DHT22;11055;50.870;4.316;2023-06-22T13:21:27;19.70;99.90
21787;DHT22;11055;50.870;4.316;2023-06-22T13:23:52;19.70;99.90
21787;DHT22;11055;50.870;4.316;2023-06-22T13:26:18;19.70;99.90
21787;DHT22;11055;50.870;4.316;2023-06-22T13:28:43;19.80;99.90
21787;DHT22;11055;50.870;4.316;2023-06-22T13:31:09;19.60;99.90
21787;DHT22;11055;50.870;4.316;2023-06-22T13:33:35;19.50;99.90
21787;DHT22;11055;50.870;4.316;2023-06-22T13:36:00;19.40;99.90
21787;DHT22;11055;50.870;4.316;2023-06-22T13:38:28;19.40;99.90
21787;DHT22;11055;50.870;4.316;2023-06-22T13:40:54;19.50;99.90
21787;DHT22;11055;50.870;4.316;2023-06-22T13:43:21;19.60;99.90
21787;DHT22;11055;50.870;4.316;2023-06-22T13:45:46;19.70;99.90
21787;DHT22;11055;50.870;4.316;2023-06-22T13:48:12;19.70;99.90
21787;DHT22;11055;50.870;4.316;2023-06-22T13:50:37;19.50;99.90
21787;DHT22;11055;50.870;4.316;2023-06-22T13:53:03;19.40;99.90
21787;DHT22;11055;50.870;4.316;2023-06-22T13:55:28;19.40;99.90
21787;DHT22;11055;50.870;4.316;2023-06-22T13:57:54;19.40;99.90
21787;DHT22;11055;50.870;4.316;2023-06-22T14:00:19;19.40;99.90
21787;DHT22;11055;50.870;4.316;2023-06-22T14:02:45;19.50;99.90
21787;DHT22;11055;50.870;4.316;2023-06-22T14:05:10;19.60;99.90
21787;DHT22;11055;50.870;4.316;2023-06-22T14:07:36;19.70;99.90
21787;DHT22;11055;50.870;4.316;2023-06-22T14:10:02;19.70;99.90
21787;DHT22;11055;50.870;4.316;2023-06-22T14:12:29;19.60;99.90
21787;DHT22;11055;50.870;4.316;2023-06-22T14:14:54;19.50;99.90
21787;DHT22;11055;50.870;4.316;2023-06-22T14:17:20;19.50;99.90
21787;DHT22;11055;50.870;4.316;2023-06-22T14:19:49;19.60;99.90
21787;DHT22;11055;50.870;4.316;2023-06-22T14:22:15;19.70;99.90
21787;DHT22;11055;50.870;4.316;2023-06-22T14:24:40;19.70;99.90
21787;DHT22;11055;50.870;4.316;2023-06-22T14:27:06;19.60;99.90
21787;DHT22;11055;50.870;4.316;2023-06-22T14:29:34;19.60;99.90
21787;DHT22;11055;50.870;4.316;2023-06-22T14:31:59;19.40;99.90
21787;DHT22;11055;50.870;4.316;2023-06-22T14:34:25;19.50;99.90
21787;DHT22;11055;50.870;4.316;2023-06-22T14:36:50;19.50;99.90
21787;DHT22;11055;50.870;4.316;2023-06-22T14:39:16;19.60;99.90
21787;DHT22;11055;50.870;4.316;2023-06-22T14:41:41;19.50;99.90
21787;DHT22;11055;50.870;4.316;2023-06-22T14:44:07;19.40;99.90
21787;DHT22;11055;50.870;4.316;2023-06-22T14:46:32;19.40;99.90
21787;DHT22;11055;50.870;4.316;2023-06-22T14:48:58;19.50;99.90
21787;DHT22;11055;50.870;4.316;2023-06-22T14:51:23;19.40;99.90
21787;DHT22;11055;50.870;4.316;2023-06-22T14:53:49;19.40;99.90
21787;DHT22;11055;50.870;4.316;2023-06-22T14:56:14;19.40;99.90
21787;DHT22;11055;50.870;4.316;2023-06-22T14:58:40;19.30;99.90
21787;DHT22;11055;50.870;4.316;2023-06-22T15:01:08;19.30;99.90
21787;DHT22;11055;50.870;4.316;2023-06-22T15:03:34;19.30;99.90
21787;DHT22;11055;50.870;4.316;2023-06-22T15:06:01;19.40;99.90
21787;DHT22;11055;50.870;4.316;2023-06-22T15:08:27;19.50;99.90
21787;DHT22;11055;50.870;4.316;2023-06-22T15:10:52;19.50;99.90
21787;DHT22;11055;50.870;4.316;2023-06-22T15:13:18;19.60;99.90
21787;DHT22;11055;50.870;4.316;2023-06-22T15:15:45;19.60;99.90
21787;DHT22;11055;50.870;4.316;2023-06-22T15:18:11;19.50;99.90
21787;DHT22;11055;50.870;4.316;2023-06-22T15:20:36;19.60;99.90
21787;DHT22;11055;50.870;4.316;2023-06-22T15:23:02;19.70;99.90
21787;DHT22;11055;50.870;4.316;2023-06-22T15:25:27;19.70;99.90
21787;DHT22;11055;50.870;4.316;2023-06-22T15:27:53;19.90;99.90
21787;DHT22;11055;50.870;4.316;2023-06-22T15:30:19;19.80;99.90